sensor_id;sensor_type;location;lat;lon;timestamp;pressure;altitude;pressure_sealevel;temperature;humidity
66887;BME280;67239;51.680;5.976;2023-04-26T00:01:00;101802.59;;;2.83;80.67
66887;BME280;67239;51.680;5.976;2023-04-26T00:03:31;101809.53;;;2.82;80.50
66887;BME280;67239;51.680;5.976;2023-04-26T00:05:59;101805.16;;;2.79;80.42
66887;BME280;67239;51.680;5.976;2023-04-26T00:08:29;101802.44;;;2.75;80.50
66887;BME280;67239;51.680;5.976;2023-04-26T00:10:56;101813.69;;;2.72;80.57
66887;BME280;67239;51.680;5.976;2023-04-26T00:13:24;101807.53;;;2.67;80.64
66887;BME280;67239;51.680;5.976;2023-04-26T00:15:51;101810.09;;;2.64;80.69
66887;BME280;67239;51.680;5.976;2023-04-26T00:18:18;101807.41;;;2.61;80.59
66887;BME280;67239;51.680;5.976;2023-04-26T00:20:45;101808.25;;;2.60;80.79
66887;BME280;67239;51.680;5.976;2023-04-26T00:23:13;101817.88;;;2.62;81.65
66887;BME280;67239;51.680;5.976;2023-04-26T00:25:40;101810.91;;;2.61;81.85
66887;BME280;67239;51.680;5.976;2023-04-26T00:28:07;101807.41;;;2.59;81.94
66887;BME280;67239;51.680;5.976;2023-04-26T00:30:34;101804.72;;;2.56;81.67
66887;BME280;67239;51.680;5.976;2023-04-26T00:33:03;101809.91;;;2.55;82.05
66887;BME280;67239;51.680;5.976;2023-04-26T00:35:30;101809.00;;;2.53;82.25
66887;BME280;67239;51.680;5.976;2023-04-26T00:37:57;101806.34;;;2.49;82.15
66887;BME280;67239;51.680;5.976;2023-04-26T00:40:24;101813.25;;;2.47;82.44
66887;BME280;67239;51.680;5.976;2023-04-26T00:42:58;101809.75;;;2.47;82.39
66887;BME280;67239;51.680;5.976;2023-04-26T00:45:26;101794.13;;;2.44;82.68
66887;BME280;67239;51.680;5.976;2023-04-26T00:47:53;101797.59;;;2.46;83.47
66887;BME280;67239;51.680;5.976;2023-04-26T00:50:20;101801.94;;;2.45;83.40
66887;BME280;67239;51.680;5.976;2023-04-26T00:52:48;101799.34;;;2.47;83.23
66887;BME280;67239;51.680;5.976;2023-04-26T00:55:17;101800.19;;;2.46;83.07
66887;BME280;67239;51.680;5.976;2023-04-26T00:57:47;101796.72;;;2.45;83.41
66887;BME280;67239;51.680;5.976;2023-04-26T01:00:14;101800.19;;;2.44;83.27
66887;BME280;67239;51.680;5.976;2023-04-26T01:02:42;101801.91;;;2.44;83.23
66887;BME280;67239;51.680;5.976;2023-04-26T01:05:10;101807.06;;;2.42;83.48
66887;BME280;67239;51.680;5.976;2023-04-26T01:07:37;101798.34;;;2.40;83.47
66887;BME280;67239;51.680;5.976;2023-04-26T01:10:04;101793.13;;;2.37;83.44
66887;BME280;67239;51.680;5.976;2023-04-26T01:12:32;101796.50;;;2.35;83.33
66887;BME280;67239;51.680;5.976;2023-04-26T01:14:59;101796.44;;;2.30;83.50
66887;BME280;67239;51.680;5.976;2023-04-26T01:17:26;101802.47;;;2.27;83.49
66887;BME280;67239;51.680;5.976;2023-04-26T01:19:56;101798.91;;;2.24;83.89
66887;BME280;67239;51.680;5.976;2023-04-26T01:22:23;101806.66;;;2.21;84.13
66887;BME280;67239;51.680;5.976;2023-04-26T01:24:50;101806.63;;;2.19;84.15
66887;BME280;67239;51.680;5.976;2023-04-26T01:27:20;101803.13;;;2.17;84.20
66887;BME280;67239;51.680;5.976;2023-04-26T01:29:47;101805.72;;;2.17;84.71
66887;BME280;67239;51.680;5.976;2023-04-26T01:32:14;101798.75;;;2.14;84.64
66887;BME280;67239;51.680;5.976;2023-04-26T01:34:42;101807.38;;;2.12;84.69
66887;BME280;67239;51.680;5.976;2023-04-26T01:37:09;101803.84;;;2.10;84.67
66887;BME280;67239;51.680;5.976;2023-04-26T01:39:37;101807.28;;;2.07;84.42
66887;BME280;67239;51.680;5.976;2023-04-26T01:42:04;101804.63;;;2.06;84.99
66887;BME280;67239;51.680;5.976;2023-04-26T01:44:31;101810.72;;;2.06;85.19
66887;BME280;67239;51.680;5.976;2023-04-26T01:47:00;101813.28;;;2.05;85.15
66887;BME280;67239;51.680;5.976;2023-04-26T01:49:27;101807.97;;;2.00;85.09
66887;BME280;67239;51.680;5.976;2023-04-26T01:51:54;101814.03;;;1.99;85.00
66887;BME280;67239;51.680;5.976;2023-04-26T01:54:23;101817.50;;;1.98;85.25
66887;BME280;67239;51.680;5.976;2023-04-26T01:56:51;101808.78;;;1.96;85.19
66887;BME280;67239;51.680;5.976;2023-04-26T01:59:19;101816.50;;;1.93;85.28
66887;BME280;67239;51.680;5.976;2023-04-26T02:01:46;101815.59;;;1.91;85.50
66887;BME280;67239;51.680;5.976;2023-04-26T02:04:13;101807.75;;;1.88;85.70
66887;BME280;67239;51.680;5.976;2023-04-26T02:06:40;101802.47;;;1.84;85.64
66887;BME280;67239;51.680;5.976;2023-04-26T02:09:08;101809.34;;;1.82;85.86
66887;BME280;67239;51.680;5.976;2023-04-26T02:11:39;101811.03;;;1.80;85.96
66887;BME280;67239;51.680;5.976;2023-04-26T02:14:06;101804.91;;;1.78;86.11
66887;BME280;67239;51.680;5.976;2023-04-26T02:16:33;101801.44;;;1.76;86.20
66887;BME280;67239;51.680;5.976;2023-04-26T02:19:00;101802.28;;;1.75;86.08
66887;BME280;67239;51.680;5.976;2023-04-26T02:21:28;101803.13;;;1.74;86.36
66887;BME280;67239;51.680;5.976;2023-04-26T02:23:56;101810.00;;;1.72;86.45
66887;BME280;67239;51.680;5.976;2023-04-26T02:26:23;101802.13;;;1.69;86.26
66887;BME280;67239;51.680;5.976;2023-04-26T02:28:50;101816.88;;;1.68;86.52
66887;BME280;67239;51.680;5.976;2023-04-26T02:31:18;101807.31;;;1.67;86.55
66887;BME280;67239;51.680;5.976;2023-04-26T02:33:48;101812.47;;;1.66;86.67
66887;BME280;67239;51.680;5.976;2023-04-26T02:36:15;101814.97;;;1.61;86.72
66887;BME280;67239;51.680;5.976;2023-04-26T02:38:42;101812.31;;;1.58;86.66
66887;BME280;67239;51.680;5.976;2023-04-26T02:41:09;101806.97;;;1.52;86.64
66887;BME280;67239;51.680;5.976;2023-04-26T02:43:36;101807.72;;;1.46;86.53
66887;BME280;67239;51.680;5.976;2023-04-26T02:46:06;101805.88;;;1.42;86.58
66887;BME280;67239;51.680;5.976;2023-04-26T02:48:33;101812.72;;;1.38;86.53
66887;BME280;67239;51.680;5.976;2023-04-26T02:51:00;101810.03;;;1.35;86.73
66887;BME280;67239;51.680;5.976;2023-04-26T02:53:27;101815.19;;;1.32;86.82
66887;BME280;67239;51.680;5.976;2023-04-26T02:55:54;101811.69;;;1.32;86.97
66887;BME280;67239;51.680;5.976;2023-04-26T02:58:21;101807.34;;;1.31;87.03
66887;BME280;67239;51.680;5.976;2023-04-26T03:00:48;101804.66;;;1.28;87.17
66887;BME280;67239;51.680;5.976;2023-04-26T03:03:16;101809.00;;;1.27;87.18
66887;BME280;67239;51.680;5.976;2023-04-26T03:05:45;101808.06;;;1.25;87.34
66887;BME280;67239;51.680;5.976;2023-04-26T03:08:12;101793.22;;;1.19;87.24
66887;BME280;67239;51.680;5.976;2023-04-26T03:10:39;101795.81;;;1.19;87.17
66887;BME280;67239;51.680;5.976;2023-04-26T03:13:07;101807.03;;;1.17;87.33
66887;BME280;67239;51.680;5.976;2023-04-26T03:15:34;101805.22;;;1.14;87.44
66887;BME280;67239;51.680;5.976;2023-04-26T03:18:02;101805.19;;;1.13;87.44
66887;BME280;67239;51.680;5.976;2023-04-26T03:20:29;101799.94;;;1.11;87.51
66887;BME280;67239;51.680;5.976;2023-04-26T03:22:56;101795.66;;;1.12;87.78
66887;BME280;67239;51.680;5.976;2023-04-26T03:25:23;101798.25;;;1.12;87.81
66887;BME280;67239;51.680;5.976;2023-04-26T03:27:51;101799.94;;;1.11;88.00
66887;BME280;67239;51.680;5.976;2023-04-26T03:30:18;101795.59;;;1.10;87.96
66887;BME280;67239;51.680;5.976;2023-04-26T03:32:45;101793.84;;;1.09;88.14
66887;BME280;67239;51.680;5.976;2023-04-26T03:35:12;101790.31;;;1.07;87.88
66887;BME280;67239;51.680;5.976;2023-04-26T03:37:39;101790.28;;;1.04;87.94
66887;BME280;67239;51.680;5.976;2023-04-26T03:40:10;101792.81;;;1.02;88.07
66887;BME280;67239;51.680;5.976;2023-04-26T03:42:38;101790.16;;;0.99;88.14
66887;BME280;67239;51.680;5.976;2023-04-26T03:45:06;101785.72;;;0.95;88.19
66887;BME280;67239;51.680;5.976;2023-04-26T03:47:34;101776.88;;;0.87;88.18
66887;BME280;67239;51.680;5.976;2023-04-26T03:50:01;101789.75;;;0.84;88.05
66887;BME280;67239;51.680;5.976;2023-04-26T03:52:29;101784.34;;;0.74;88.18
66887;BME280;67239;51.680;5.976;2023-04-26T03:54:56;101795.63;;;0.75;88.24
66887;BME280;67239;51.680;5.976;2023-04-26T03:57:23;101793.78;;;0.71;88.29
66887;BME280;67239;51.680;5.976;2023-04-26T03:59:51;101788.56;;;0.69;88.27
66887;BME280;67239;51.680;5.976;2023-04-26T04:02:18;101786.72;;;0.67;88.45
66887;BME280;67239;51.680;5.976;2023-04-26T04:04:45;101782.41;;;0.66;88.50
66887;BME280;67239;51.680;5.976;2023-04-26T04:07:13;101785.84;;;0.65;88.53
66887;BME280;67239;51.680;5.976;2023-04-26T04:09:40;101788.31;;;0.60;88.52
66887;BME280;67239;51.680;5.976;2023-04-26T04:12:07;101791.69;;;0.57;88.52
66887;BME280;67239;51.680;5.976;2023-04-26T04:14:35;101795.97;;;0.55;88.54
66887;BME280;67239;51.680;5.976;2023-04-26T04:17:02;101797.69;;;0.55;88.72
66887;BME280;67239;51.680;5.976;2023-04-26T04:19:29;101797.78;;;0.58;88.82
66887;BME280;67239;51.680;5.976;2023-04-26T04:21:56;101790.94;;;0.61;89.13
66887;BME280;67239;51.680;5.976;2023-04-26T04:24:24;101786.72;;;0.67;89.55
66887;BME280;67239;51.680;5.976;2023-04-26T04:26:52;101786.00;;;0.72;89.78
66887;BME280;67239;51.680;5.976;2023-04-26T04:29:19;101780.94;;;0.77;89.65
66887;BME280;67239;51.680;5.976;2023-04-26T04:31:46;101784.53;;;0.82;89.45
66887;BME280;67239;51.680;5.976;2023-04-26T04:34:13;101791.59;;;0.86;89.37
66887;BME280;67239;51.680;5.976;2023-04-26T04:36:43;101783.94;;;0.92;89.10
66887;BME280;67239;51.680;5.976;2023-04-26T04:39:10;101790.31;;;1.07;88.99
66887;BME280;67239;51.680;5.976;2023-04-26T04:41:43;101795.13;;;1.27;88.80
66887;BME280;67239;51.680;5.976;2023-04-26T04:44:16;101790.88;;;2.11;86.73
66887;BME280;67239;51.680;5.976;2023-04-26T04:46:44;101800.19;;;2.95;85.39
66887;BME280;67239;51.680;5.976;2023-04-26T04:49:11;101791.13;;;3.88;82.99
66887;BME280;67239;51.680;5.976;2023-04-26T04:51:38;101788.88;;;4.19;82.21
66887;BME280;67239;51.680;5.976;2023-04-26T04:54:14;101801.38;;;4.46;81.20
66887;BME280;67239;51.680;5.976;2023-04-26T04:56:44;101798.50;;;5.16;79.08
66887;BME280;67239;51.680;5.976;2023-04-26T04:59:13;101797.28;;;6.09;76.97
66887;BME280;67239;51.680;5.976;2023-04-26T05:01:40;101796.50;;;6.33;75.58
66887;BME280;67239;51.680;5.976;2023-04-26T05:04:11;101799.19;;;6.61;74.54
66887;BME280;67239;51.680;5.976;2023-04-26T05:06:38;101797.44;;;6.82;73.65
66887;BME280;67239;51.680;5.976;2023-04-26T05:09:06;101796.56;;;7.19;72.27
66887;BME280;67239;51.680;5.976;2023-04-26T05:11:35;101796.53;;;7.48;71.57
66887;BME280;67239;51.680;5.976;2023-04-26T05:14:04;101798.84;;;8.32;68.82
66887;BME280;67239;51.680;5.976;2023-04-26T05:16:31;101796.03;;;8.61;67.82
66887;BME280;67239;51.680;5.976;2023-04-26T05:19:00;101794.72;;;9.16;65.99
66887;BME280;67239;51.680;5.976;2023-04-26T05:21:27;101794.00;;;9.86;64.62
66887;BME280;67239;51.680;5.976;2023-04-26T05:23:54;101791.88;;;10.16;62.39
66887;BME280;67239;51.680;5.976;2023-04-26T05:26:21;101798.19;;;10.04;61.97
66887;BME280;67239;51.680;5.976;2023-04-26T05:29:11;101801.25;;;10.98;59.98
66887;BME280;67239;51.680;5.976;2023-04-26T05:31:59;101809.66;;;12.54;56.71
66887;BME280;67239;51.680;5.976;2023-04-26T05:34:42;101806.81;;;13.67;53.95
66887;BME280;67239;51.680;5.976;2023-04-26T05:37:14;101812.84;;;14.34;51.83
66887;BME280;67239;51.680;5.976;2023-04-26T05:39:41;101808.34;;;14.94;49.37
66887;BME280;67239;51.680;5.976;2023-04-26T05:42:08;101803.22;;;15.15;47.92
66887;BME280;67239;51.680;5.976;2023-04-26T05:44:35;101811.31;;;13.96;47.62
66887;BME280;67239;51.680;5.976;2023-04-26T05:47:02;101816.88;;;12.05;50.65
66887;BME280;67239;51.680;5.976;2023-04-26T05:49:30;101823.78;;;10.60;54.89
66887;BME280;67239;51.680;5.976;2023-04-26T05:51:58;101832.84;;;9.66;57.77
66887;BME280;67239;51.680;5.976;2023-04-26T05:54:26;101829.22;;;8.82;59.98
66887;BME280;67239;51.680;5.976;2023-04-26T05:56:54;101833.91;;;8.21;61.77
66887;BME280;67239;51.680;5.976;2023-04-26T05:59:25;101834.97;;;7.75;63.62
66887;BME280;67239;51.680;5.976;2023-04-26T06:01:53;101821.00;;;7.44;64.41
66887;BME280;67239;51.680;5.976;2023-04-26T06:04:20;101835.03;;;7.18;65.22
66887;BME280;67239;51.680;5.976;2023-04-26T06:06:59;101830.66;;;6.89;66.07
66887;BME280;67239;51.680;5.976;2023-04-26T06:09:26;101831.50;;;6.68;66.99
66887;BME280;67239;51.680;5.976;2023-04-26T06:11:53;101834.94;;;6.41;67.97
66887;BME280;67239;51.680;5.976;2023-04-26T06:14:21;101834.00;;;6.20;68.80
66887;BME280;67239;51.680;5.976;2023-04-26T06:17:00;101838.28;;;6.01;69.94
66887;BME280;67239;51.680;5.976;2023-04-26T06:19:28;101836.41;;;5.87;70.48
66887;BME280;67239;51.680;5.976;2023-04-26T06:21:55;101845.97;;;5.78;71.16
66887;BME280;67239;51.680;5.976;2023-04-26T06:24:23;101839.84;;;5.69;71.31
66887;BME280;67239;51.680;5.976;2023-04-26T06:26:51;101842.41;;;5.66;71.91
66887;BME280;67239;51.680;5.976;2023-04-26T06:29:19;101839.78;;;5.63;72.48
66887;BME280;67239;51.680;5.976;2023-04-26T06:31:47;101837.22;;;5.69;73.09
66887;BME280;67239;51.680;5.976;2023-04-26T06:34:15;101834.63;;;5.77;73.16
66887;BME280;67239;51.680;5.976;2023-04-26T06:36:42;101834.69;;;5.91;73.22
66887;BME280;67239;51.680;5.976;2023-04-26T06:39:10;101833.06;;;6.05;73.19
66887;BME280;67239;51.680;5.976;2023-04-26T06:41:38;101839.22;;;6.15;72.88
66887;BME280;67239;51.680;5.976;2023-04-26T06:44:08;101835.75;;;6.29;73.15
66887;BME280;67239;51.680;5.976;2023-04-26T06:46:41;101837.56;;;6.42;73.07
66887;BME280;67239;51.680;5.976;2023-04-26T06:49:08;101835.84;;;6.55;73.25
66887;BME280;67239;51.680;5.976;2023-04-26T06:51:37;101843.72;;;6.78;73.17
66887;BME280;67239;51.680;5.976;2023-04-26T06:54:05;101841.16;;;7.05;72.82
66887;BME280;67239;51.680;5.976;2023-04-26T06:56:32;101842.03;;;7.27;72.66
66887;BME280;67239;51.680;5.976;2023-04-26T06:59:05;101839.38;;;7.39;72.29
66887;BME280;67239;51.680;5.976;2023-04-26T07:01:34;101840.25;;;7.54;72.37
66887;BME280;67239;51.680;5.976;2023-04-26T07:04:03;101841.97;;;7.66;72.01
66887;BME280;67239;51.680;5.976;2023-04-26T07:06:38;101850.72;;;7.75;70.33
66887;BME280;67239;51.680;5.976;2023-04-26T07:09:06;101851.56;;;7.79;70.38
66887;BME280;67239;51.680;5.976;2023-04-26T07:11:33;101858.53;;;7.92;70.95
66887;BME280;67239;51.680;5.976;2023-04-26T07:14:00;101854.09;;;8.10;70.75
66887;BME280;67239;51.680;5.976;2023-04-26T07:16:28;101858.41;;;8.25;71.14
66887;BME280;67239;51.680;5.976;2023-04-26T07:18:55;101852.25;;;8.35;70.30
66887;BME280;67239;51.680;5.976;2023-04-26T07:21:25;101848.69;;;8.47;70.35
66887;BME280;67239;51.680;5.976;2023-04-26T07:23:55;101854.75;;;8.62;69.41
66887;BME280;67239;51.680;5.976;2023-04-26T07:26:24;101849.41;;;8.76;69.41
66887;BME280;67239;51.680;5.976;2023-04-26T07:28:54;101844.97;;;8.87;69.31
66887;BME280;67239;51.680;5.976;2023-04-26T07:31:22;101852.75;;;8.99;68.07
66887;BME280;67239;51.680;5.976;2023-04-26T07:33:49;101850.91;;;9.09;68.63
66887;BME280;67239;51.680;5.976;2023-04-26T07:36:16;101847.31;;;9.23;68.37
66887;BME280;67239;51.680;5.976;2023-04-26T07:38:43;101845.44;;;9.36;68.51
66887;BME280;67239;51.680;5.976;2023-04-26T07:41:10;101844.41;;;9.51;68.44
66887;BME280;67239;51.680;5.976;2023-04-26T07:43:38;101845.19;;;9.62;68.01
66887;BME280;67239;51.680;5.976;2023-04-26T07:46:05;101838.97;;;9.71;67.99
66887;BME280;67239;51.680;5.976;2023-04-26T07:48:32;101839.78;;;9.76;65.67
66887;BME280;67239;51.680;5.976;2023-04-26T07:51:07;101838.00;;;9.78;65.14
66887;BME280;67239;51.680;5.976;2023-04-26T07:53:37;101840.66;;;9.75;61.87
66887;BME280;67239;51.680;5.976;2023-04-26T07:56:06;101845.94;;;9.72;60.55
66887;BME280;67239;51.680;5.976;2023-04-26T07:58:35;101846.00;;;9.69;60.41
66887;BME280;67239;51.680;5.976;2023-04-26T08:01:05;101844.22;;;9.71;61.15
66887;BME280;67239;51.680;5.976;2023-04-26T08:03:32;101842.38;;;9.77;58.33
66887;BME280;67239;51.680;5.976;2023-04-26T08:05:59;101841.50;;;9.80;58.51
66887;BME280;67239;51.680;5.976;2023-04-26T08:08:27;101840.56;;;9.86;58.21
66887;BME280;67239;51.680;5.976;2023-04-26T08:10:55;101843.97;;;9.94;57.99
66887;BME280;67239;51.680;5.976;2023-04-26T08:13:22;101846.53;;;9.99;59.13
66887;BME280;67239;51.680;5.976;2023-04-26T08:15:49;101850.00;;;10.02;59.25
66887;BME280;67239;51.680;5.976;2023-04-26T08:18:16;101850.88;;;10.03;57.54
66887;BME280;67239;51.680;5.976;2023-04-26T08:20:43;101850.97;;;9.93;56.36
66887;BME280;67239;51.680;5.976;2023-04-26T08:23:10;101853.72;;;9.84;58.00
66887;BME280;67239;51.680;5.976;2023-04-26T08:25:38;101854.66;;;9.78;57.89
66887;BME280;67239;51.680;5.976;2023-04-26T08:28:05;101862.59;;;9.74;58.28
66887;BME280;67239;51.680;5.976;2023-04-26T08:30:34;101860.97;;;9.65;56.61
66887;BME280;67239;51.680;5.976;2023-04-26T08:33:01;101865.44;;;9.55;57.50
66887;BME280;67239;51.680;5.976;2023-04-26T08:35:29;101866.38;;;9.51;58.59
66887;BME280;67239;51.680;5.976;2023-04-26T08:37:56;101865.38;;;9.60;59.21
66887;BME280;67239;51.680;5.976;2023-04-26T08:40:23;101875.88;;;9.66;58.07
66887;BME280;67239;51.680;5.976;2023-04-26T08:42:51;101868.84;;;9.67;58.44
66887;BME280;67239;51.680;5.976;2023-04-26T08:45:20;101858.28;;;9.70;58.88
66887;BME280;67239;51.680;5.976;2023-04-26T08:47:52;101861.63;;;9.84;57.52
66887;BME280;67239;51.680;5.976;2023-04-26T08:50:24;101864.19;;;9.92;55.62
66887;BME280;67239;51.680;5.976;2023-04-26T08:52:52;101851.78;;;10.00;55.96
66887;BME280;67239;51.680;5.976;2023-04-26T08:55:19;101851.34;;;10.36;57.07
66887;BME280;67239;51.680;5.976;2023-04-26T08:57:48;101857.69;;;10.86;56.86
66887;BME280;67239;51.680;5.976;2023-04-26T09:00:17;101849.06;;;11.31;57.25
66887;BME280;67239;51.680;5.976;2023-04-26T09:02:47;101839.72;;;11.60;55.89
66887;BME280;67239;51.680;5.976;2023-04-26T09:05:18;101845.09;;;11.57;52.26
66887;BME280;67239;51.680;5.976;2023-04-26T09:07:55;101842.72;;;11.42;51.65
66887;BME280;67239;51.680;5.976;2023-04-26T09:10:23;101843.94;;;11.22;51.29
66887;BME280;67239;51.680;5.976;2023-04-26T09:12:51;101848.69;;;11.00;51.56
66887;BME280;67239;51.680;5.976;2023-04-26T09:15:20;101841.94;;;10.83;52.12
66887;BME280;67239;51.680;5.976;2023-04-26T09:17:48;101843.78;;;10.75;51.58
66887;BME280;67239;51.680;5.976;2023-04-26T09:20:27;101846.66;;;10.60;51.45
66887;BME280;67239;51.680;5.976;2023-04-26T09:23:06;101848.63;;;10.47;51.76
66887;BME280;67239;51.680;5.976;2023-04-26T09:25:35;101842.53;;;10.37;51.46
66887;BME280;67239;51.680;5.976;2023-04-26T09:28:04;101843.47;;;10.34;51.67
66887;BME280;67239;51.680;5.976;2023-04-26T09:30:45;101839.16;;;10.29;52.02
66887;BME280;67239;51.680;5.976;2023-04-26T09:33:12;101840.00;;;10.29;52.30
66887;BME280;67239;51.680;5.976;2023-04-26T09:35:43;101838.28;;;10.26;52.64
66887;BME280;67239;51.680;5.976;2023-04-26T09:38:17;101834.72;;;10.32;52.15
66887;BME280;67239;51.680;5.976;2023-04-26T09:40:48;101838.00;;;10.50;52.95
66887;BME280;67239;51.680;5.976;2023-04-26T09:43:20;101826.97;;;10.84;53.90
66887;BME280;67239;51.680;5.976;2023-04-26T09:45:53;101830.03;;;11.12;54.01
66887;BME280;67239;51.680;5.976;2023-04-26T09:48:28;101831.22;;;11.46;51.80
66887;BME280;67239;51.680;5.976;2023-04-26T09:51:07;101827.94;;;11.78;51.95
66887;BME280;67239;51.680;5.976;2023-04-26T09:53:39;101824.56;;;12.17;50.61
66887;BME280;67239;51.680;5.976;2023-04-26T09:56:17;101827.38;;;12.49;50.23
66887;BME280;67239;51.680;5.976;2023-04-26T10:01:13;101832.69;;;12.86;48.58
66887;BME280;67239;51.680;5.976;2023-04-26T10:03:45;101825.31;;;12.99;46.45
66887;BME280;67239;51.680;5.976;2023-04-26T10:06:14;101825.50;;;12.93;45.45
66887;BME280;67239;51.680;5.976;2023-04-26T10:08:42;101824.19;;;12.73;45.73
66887;BME280;67239;51.680;5.976;2023-04-26T10:11:11;101821.09;;;12.56;47.11
66887;BME280;67239;51.680;5.976;2023-04-26T10:13:40;101824.47;;;12.61;45.88
66887;BME280;67239;51.680;5.976;2023-04-26T10:16:08;101812.03;;;12.65;45.50
66887;BME280;67239;51.680;5.976;2023-04-26T10:18:36;101822.66;;;12.63;45.29
66887;BME280;67239;51.680;5.976;2023-04-26T10:21:27;101821.97;;;12.55;44.32
66887;BME280;67239;51.680;5.976;2023-04-26T10:23:59;101826.75;;;12.39;43.40
66887;BME280;67239;51.680;5.976;2023-04-26T10:26:46;101821.81;;;12.22;43.44
66887;BME280;67239;51.680;5.976;2023-04-26T10:29:25;101819.47;;;12.08;43.10
66887;BME280;67239;51.680;5.976;2023-04-26T10:32:13;101821.47;;;11.95;44.13
66887;BME280;67239;51.680;5.976;2023-04-26T10:34:43;101823.50;;;11.80;44.05
66887;BME280;67239;51.680;5.976;2023-04-26T10:37:12;101828.22;;;11.64;45.59
66887;BME280;67239;51.680;5.976;2023-04-26T10:39:43;101831.00;;;11.58;46.34
66887;BME280;67239;51.680;5.976;2023-04-26T10:47:35;101824.75;;;11.11;46.01
66887;BME280;67239;51.680;5.976;2023-04-26T10:50:08;101816.88;;;11.09;46.29
66887;BME280;67239;51.680;5.976;2023-04-26T10:58:33;101814.22;;;11.11;47.41
66887;BME280;67239;51.680;5.976;2023-04-26T11:01:14;101813.38;;;11.09;47.89
66887;BME280;67239;51.680;5.976;2023-04-26T11:04:10;101809.91;;;11.07;48.92
66887;BME280;67239;51.680;5.976;2023-04-26T11:06:51;101814.22;;;11.12;49.17
66887;BME280;67239;51.680;5.976;2023-04-26T11:09:37;101812.25;;;11.24;49.02
66887;BME280;67239;51.680;5.976;2023-04-26T11:12:10;101804.75;;;11.49;47.96
66887;BME280;67239;51.680;5.976;2023-04-26T11:14:43;101806.72;;;11.85;46.79
66887;BME280;67239;51.680;5.976;2023-04-26T11:17:12;101802.53;;;12.17;45.14
66887;BME280;67239;51.680;5.976;2023-04-26T11:19:42;101802.03;;;12.40;43.20
66887;BME280;67239;51.680;5.976;2023-04-26T11:22:12;101797.28;;;12.56;42.48
66887;BME280;67239;51.680;5.976;2023-04-26T11:24:39;101797.69;;;12.75;43.80
66887;BME280;67239;51.680;5.976;2023-04-26T11:27:09;101798.72;;;13.05;44.83
66887;BME280;67239;51.680;5.976;2023-04-26T11:29:37;101799.69;;;13.36;43.03
66887;BME280;67239;51.680;5.976;2023-04-26T11:32:05;101796.53;;;13.56;40.46
66887;BME280;67239;51.680;5.976;2023-04-26T11:34:36;101794.41;;;13.69;39.73
66887;BME280;67239;51.680;5.976;2023-04-26T11:37:05;101788.97;;;13.74;39.15
66887;BME280;67239;51.680;5.976;2023-04-26T11:39:34;101788.00;;;13.76;38.47
66887;BME280;67239;51.680;5.976;2023-04-26T11:42:06;101789.50;;;13.87;39.22
66887;BME280;67239;51.680;5.976;2023-04-26T11:44:35;101791.44;;;14.10;40.42
66887;BME280;67239;51.680;5.976;2023-04-26T11:47:05;101780.59;;;14.48;40.74
66887;BME280;67239;51.680;5.976;2023-04-26T11:49:35;101785.81;;;14.79;39.07
66887;BME280;67239;51.680;5.976;2023-04-26T11:52:04;101787.59;;;14.79;39.89
66887;BME280;67239;51.680;5.976;2023-04-26T11:54:33;101782.50;;;14.72;40.06
66887;BME280;67239;51.680;5.976;2023-04-26T11:57:13;101785.56;;;14.58;38.18
66887;BME280;67239;51.680;5.976;2023-04-26T11:59:43;101777.81;;;14.22;38.12
66887;BME280;67239;51.680;5.976;2023-04-26T12:02:11;101775.25;;;13.91;38.86
66887;BME280;67239;51.680;5.976;2023-04-26T12:04:38;101773.13;;;13.72;40.14
66887;BME280;67239;51.680;5.976;2023-04-26T12:07:07;101780.31;;;13.67;39.60
66887;BME280;67239;51.680;5.976;2023-04-26T12:09:39;101785.84;;;13.59;38.13
66887;BME280;67239;51.680;5.976;2023-04-26T12:12:09;101784.59;;;13.41;39.53
66887;BME280;67239;51.680;5.976;2023-04-26T12:14:38;101783.91;;;13.31;39.87
66887;BME280;67239;51.680;5.976;2023-04-26T12:17:06;101786.75;;;13.24;39.65
66887;BME280;67239;51.680;5.976;2023-04-26T12:19:37;101784.69;;;13.02;39.75
66887;BME280;67239;51.680;5.976;2023-04-26T12:22:07;101792.16;;;12.84;40.62
66887;BME280;67239;51.680;5.976;2023-04-26T12:24:34;101797.88;;;12.67;40.90
66887;BME280;67239;51.680;5.976;2023-04-26T12:27:03;101803.56;;;12.50;40.84
66887;BME280;67239;51.680;5.976;2023-04-26T12:29:34;101805.69;;;12.34;40.88
66887;BME280;67239;51.680;5.976;2023-04-26T12:32:01;101800.81;;;12.16;42.12
66887;BME280;67239;51.680;5.976;2023-04-26T12:34:29;101800.88;;;12.13;41.82
66887;BME280;67239;51.680;5.976;2023-04-26T12:36:57;101803.47;;;12.14;42.16
66887;BME280;67239;51.680;5.976;2023-04-26T12:39:24;101796.44;;;12.13;42.32
66887;BME280;67239;51.680;5.976;2023-04-26T12:41:51;101792.00;;;12.15;42.38
66887;BME280;67239;51.680;5.976;2023-04-26T12:44:18;101790.25;;;12.14;42.28
66887;BME280;67239;51.680;5.976;2023-04-26T12:46:48;101793.81;;;12.13;41.84
66887;BME280;67239;51.680;5.976;2023-04-26T12:49:15;101794.69;;;12.14;42.18
66887;BME280;67239;51.680;5.976;2023-04-26T12:51:43;101797.28;;;12.15;42.20
66887;BME280;67239;51.680;5.976;2023-04-26T12:54:10;101791.00;;;12.21;42.37
66887;BME280;67239;51.680;5.976;2023-04-26T12:56:37;101802.16;;;12.35;42.48
66887;BME280;67239;51.680;5.976;2023-04-26T12:59:09;101798.97;;;12.58;42.66
66887;BME280;67239;51.680;5.976;2023-04-26T13:01:36;101796.84;;;12.74;41.92
66887;BME280;67239;51.680;5.976;2023-04-26T13:04:04;101791.25;;;12.85;41.68
66887;BME280;67239;51.680;5.976;2023-04-26T13:06:32;101798.38;;;12.83;40.56
66887;BME280;67239;51.680;5.976;2023-04-26T13:09:00;101796.78;;;12.76;40.75
66887;BME280;67239;51.680;5.976;2023-04-26T13:11:27;101785.41;;;12.72;40.38
66887;BME280;67239;51.680;5.976;2023-04-26T13:13:54;101789.69;;;12.78;41.51
66887;BME280;67239;51.680;5.976;2023-04-26T13:16:21;101794.44;;;13.00;41.89
66887;BME280;67239;51.680;5.976;2023-04-26T13:18:49;101792.03;;;13.25;40.87
66887;BME280;67239;51.680;5.976;2023-04-26T13:21:16;101791.00;;;13.31;40.38